Nambouwalu, Fiji
Current Conditions -  °F | °C
As of 6:00 PM on Saturday 25 Oct 2014 (Local Time) from NFNA Reporting Station
Broken Clouds Broken Clouds  
Wind Chill: 21°   Ceiling: 1800
Heat Index: 21°   Visibility: 6mi
Dew Point: 21°   Wind: 0mph
Humidity: 100%   Direction: NA
Pressure: 29.91"   Gusts: NA
Location:  16.99°S, 178.69°E
Report Text: NFNA 250600Z 00000KT 9999 BKN018 BKN045 21/21 Q1013
Loading
Personal Weather Stations






























Interactive Weather Map
Tropical Storm Tracking
New forecast layout! Learn more

10-Day Weather Forecast

Advertisements
Track Severe Weather on mobile